Иваново (Аэротакси)

Карта отелей и гостиниц, располагающихся рядом с аэропортом Иваново (Аэротакси) :

Иваново (Аэротакси) Ивановская область 56° 57' 57.3588" N, 40° 57' 39.96" E
Иваново (Аэротакси) Ивановская область 56° 57' 57.3588" N, 40° 57' 39.96" E
Код аэродрома ИКАО
HG4S
Код аэродрома RU
ХГ4С
Координаты
N56.96593° E040.96110°
Превышение над уровнем моря
128
Основная полоса
36/18
Курс магнитный
358,3/178,3
Длина основной ВПП
45
Ширина основной ВПП
45
Покрытие основной ВПП
Твёрдое
Освещение ВПП
Нет
Тип: 
Вертодром
Класс аэродрома: 
Принадлежность: 
ГА
Статус: 
Действующий
Сайт: 
E-mail аэродрома: 
Страна: 
Россия
Регион: 
Ивановская область
Город: 
Дополнительная информация: 
Оператор: нет данных.

Найти трансфер

С помощью этой формы Вы можете найти трансфер из аэропорта Иваново (Аэротакси) в город, аэропорт или вокзал:

Погода в аэропортах:

Авиационная погода в Москве - Остафьево

Погода METAR: 
UUMO 222100Z 12004MPS 5000 -SN OVC007 M04/M05 Q1013 R07/491030 NOSIG RMK QFE745/0994
Время наблюдения
2022-01-22T21:00:00Z
Температура C
-4.0
Точка росы
-5.0
Направление ветра
120
Скорость ветра (узлы)
8
Метео видимость
3.11
Облачность
OVC
Нижняя граница облачности (футы)
700
Явления погоды
-SN
Условия полета
IFR
Аэропорт подробнее: 
OVC – сплошная облачность;
-SN – слабый снег;

Авиационная погода в аэропорту Алыкель

Регион: 
Погода METAR: 
UOOO 222100Z 21012MPS 0450 0350NE R19/0900U SN BLSN OVC007 M11/M12 Q1017 R19/451033 NOSIG RMK QFE747/0996
Время наблюдения
2022-01-22T21:00:00Z
Температура C
-11.0
Точка росы
-12.0
Направление ветра
210
Скорость ветра (узлы)
23
Метео видимость
0.28
Облачность
OVC
Нижняя граница облачности (футы)
700
Явления погоды
BLSN SN
Условия полета
LIFR
Аэропорт подробнее: 
OVC – сплошная облачность;
BLSN – метель низовая или общая;

Авиационная погода в Сыктывкаре

Регион: 
Погода METAR: 
UUYY 222100Z 00000MPS 3500 BR NSC M20/M21 Q1026 R18/420248 NOSIG RMK QFE761/1015
Время наблюдения
2022-01-22T21:00:00Z
Температура C
-20.0
Точка росы
-21.0
Направление ветра
0
Скорость ветра (узлы)
0
Метео видимость
2.17
Облачность
CLR
Нижняя граница облачности (футы)
Явления погоды
BR
Условия полета
IFR
Аэропорт подробнее: 
CLR — нет облаков ниже 3000 м
BR – дымка (видимость от 1 до 9 км);

Авиационная погода в Ульяновске

Регион: 
Погода METAR: 
UWLW 222100Z 16008MPS 7000 -SN BLSN OVC023 M06/M08 Q1022 R20/491540 NOSIG RMK QFE761
Время наблюдения
2022-01-22T21:00:00Z
Температура C
-6.0
Точка росы
-8.0
Направление ветра
160
Скорость ветра (узлы)
16
Метео видимость
4.35
Облачность
OVC
Нижняя граница облачности (футы)
2300
Явления погоды
-SN BLSN
Условия полета
MVFR
Аэропорт подробнее: 
OVC – сплошная облачность;
-SN – слабый снег, BLSN – метель низовая или общая;